createdAt,value
2017-09-20T00:00:56.450Z,33.57
2017-09-20T00:06:12.322Z,35.53
2017-09-20T00:08:44.172Z,30.57
2017-09-20T00:11:15.174Z,34.67
2017-09-20T00:13:52.059Z,30.23
2017-09-20T00:16:22.795Z,35.00
2017-09-20T00:18:53.793Z,34.73
2017-09-20T00:21:25.205Z,36.70
2017-09-20T00:23:57.189Z,41.87
2017-09-20T00:26:27.673Z,36.43
2017-09-20T00:28:59.015Z,39.37
2017-09-20T00:31:29.954Z,37.07
2017-09-20T00:34:01.107Z,34.67
2017-09-20T00:36:31.744Z,41.73
2017-09-20T00:39:04.088Z,37.70
2017-09-20T00:41:35.041Z,34.63
2017-09-20T00:44:06.018Z,36.07
2017-09-20T00:46:36.578Z,33.63
2017-09-20T00:49:04.282Z,30.73
2017-09-20T00:51:32.010Z,29.10
2017-09-20T00:53:59.663Z,31.23
2017-09-20T00:56:27.361Z,33.07
2017-09-20T00:58:55.039Z,31.47
2017-09-20T01:01:22.754Z,29.40
2017-09-20T01:03:50.513Z,32.53
2017-09-20T01:06:18.220Z,32.00
2017-09-20T01:08:45.947Z,34.23
2017-09-20T01:11:13.654Z,35.27
2017-09-20T01:13:41.347Z,35.87
2017-09-20T01:16:09.056Z,38.47
2017-09-20T01:18:36.837Z,45.07
2017-09-20T01:21:04.550Z,45.83
2017-09-20T01:23:32.218Z,47.80
2017-09-20T01:25:59.934Z,39.73
2017-09-20T01:28:27.703Z,39.93
2017-09-20T01:30:55.426Z,40.97
2017-09-20T01:33:23.191Z,47.57
2017-09-20T01:35:50.908Z,56.03
2017-09-20T01:38:18.727Z,49.53
2017-09-20T01:40:46.459Z,62.57
2017-09-20T01:43:14.214Z,45.73
2017-09-20T01:45:41.900Z,50.97
2017-09-20T01:48:09.557Z,56.67
2017-09-20T01:50:37.239Z,55.20
2017-09-20T01:53:04.881Z,70.30
2017-09-20T01:55:32.588Z,67.40
2017-09-20T01:58:00.313Z,71.57
2017-09-20T02:00:28.054Z,75.23
2017-09-20T02:02:55.705Z,73.03
2017-09-20T02:05:23.450Z,67.97
2017-09-20T02:07:51.051Z,83.00
2017-09-20T02:10:18.819Z,79.83
2017-09-20T02:12:46.551Z,84.47
2017-09-20T02:15:14.302Z,78.83
2017-09-20T02:17:42.005Z,77.23
2017-09-20T02:20:09.745Z,82.00
2017-09-20T02:22:37.445Z,76.30
2017-09-20T02:25:05.225Z,80.90
2017-09-20T02:27:32.841Z,81.97
2017-09-20T02:30:00.597Z,82.17
2017-09-20T02:32:28.330Z,80.03
2017-09-20T02:34:55.987Z,81.03
2017-09-20T02:37:23.709Z,78.37
2017-09-20T02:39:51.495Z,82.70
2017-09-20T02:42:19.191Z,80.73
2017-09-20T02:44:46.985Z,87.53
2017-09-20T02:47:14.625Z,87.30
2017-09-20T02:49:42.328Z,100.90
2017-09-20T02:52:10.077Z,100.90
2017-09-20T02:54:37.832Z,73.87
2017-09-20T02:57:05.530Z,83.97
2017-09-20T02:59:33.282Z,114.83
2017-09-20T03:02:01.021Z,79.97
2017-09-20T03:04:28.825Z,79.10
2017-09-20T03:06:56.564Z,95.03
2017-09-20T03:09:24.322Z,103.30
2017-09-20T03:11:51.974Z,97.27
2017-09-20T03:14:19.747Z,84.57
2017-09-20T03:16:47.454Z,88.00
2017-09-20T03:19:15.150Z,89.53
2017-09-20T03:21:42.847Z,77.83
2017-09-20T03:24:10.621Z,93.57
2017-09-20T03:26:38.225Z,84.57
2017-09-20T03:29:05.998Z,90.67
2017-09-20T03:31:33.719Z,95.70
2017-09-20T03:34:01.365Z,88.93
2017-09-20T03:36:28.982Z,78.43
2017-09-20T03:38:56.728Z,72.60
2017-09-20T03:41:24.496Z,60.83
2017-09-20T03:43:52.207Z,95.50
2017-09-20T03:46:20.088Z,102.27
2017-09-20T03:48:47.801Z,99.37
2017-09-20T03:51:15.554Z,94.93
2017-09-20T03:53:43.277Z,93.57
2017-09-20T03:56:11.035Z,90.83
2017-09-20T03:58:38.753Z,119.40
2017-09-20T04:01:09.548Z,102.80
2017-09-20T04:03:37.271Z,116.53
2017-09-20T04:06:05.064Z,100.03
2017-09-20T04:08:32.677Z,97.13
2017-09-20T04:11:00.436Z,95.77
2017-09-20T04:13:28.054Z,102.50
2017-09-20T04:15:55.825Z,83.93
2017-09-20T04:18:23.528Z,91.60
2017-09-20T04:20:51.310Z,97.17
2017-09-20T04:23:18.923Z,89.97
2017-09-20T04:25:46.694Z,90.60
2017-09-20T04:28:14.307Z,95.37
2017-09-20T04:30:42.082Z,83.47
2017-09-20T04:33:09.718Z,89.80
2017-09-20T04:35:37.465Z,90.40
2017-09-20T04:38:05.230Z,86.83
2017-09-20T04:40:32.991Z,90.03
2017-09-20T04:43:00.645Z,91.83
2017-09-20T04:45:28.409Z,90.10
2017-09-20T04:47:56.014Z,91.27
2017-09-20T04:50:23.672Z,86.67
2017-09-20T04:52:51.268Z,87.93
2017-09-20T04:55:18.905Z,91.47
2017-09-20T04:57:46.493Z,90.53
2017-09-20T05:00:14.202Z,89.27
2017-09-20T05:02:41.825Z,98.97
2017-09-20T05:05:09.489Z,94.63
2017-09-20T05:07:37.117Z,88.70
2017-09-20T05:10:05.346Z,93.30
2017-09-20T05:12:32.951Z,93.07
2017-09-20T05:15:00.654Z,97.73
2017-09-20T05:17:28.250Z,91.27
2017-09-20T05:19:55.933Z,87.80
2017-09-20T05:22:23.536Z,110.30
2017-09-20T05:24:51.161Z,96.90
2017-09-20T05:27:19.100Z,96.93
2017-09-20T05:29:46.725Z,89.77
2017-09-20T05:32:14.414Z,103.13
2017-09-20T05:34:42.039Z,106.07
2017-09-20T05:37:09.708Z,97.07
2017-09-20T05:39:37.307Z,93.60
2017-09-20T05:42:04.959Z,99.17
2017-09-20T05:44:32.590Z,88.07
2017-09-20T05:47:00.239Z,87.90
2017-09-20T05:49:27.833Z,83.67
2017-09-20T05:51:55.486Z,86.10
2017-09-20T05:54:23.113Z,85.50
2017-09-20T05:56:50.768Z,77.03
2017-09-20T05:59:18.400Z,104.20
2017-09-20T06:01:46.089Z,82.37
2017-09-20T06:04:13.717Z,84.40
2017-09-20T06:06:41.383Z,93.63
2017-09-20T06:09:08.996Z,82.43
2017-09-20T06:11:36.656Z,98.03
2017-09-20T06:14:04.277Z,82.83
2017-09-20T06:16:31.917Z,75.33
2017-09-20T06:18:59.533Z,86.70
2017-09-20T06:21:27.232Z,85.60
2017-09-20T06:23:54.869Z,84.43
2017-09-20T06:26:22.548Z,77.83
2017-09-20T06:28:50.196Z,72.73
2017-09-20T06:31:17.837Z,86.10
2017-09-20T06:33:45.458Z,87.43
2017-09-20T06:36:13.124Z,80.83
2017-09-20T06:38:40.749Z,81.63
2017-09-20T06:41:08.396Z,78.90
2017-09-20T06:43:36.043Z,63.07
2017-09-20T06:46:03.724Z,57.60
2017-09-20T06:48:31.341Z,61.90
2017-09-20T06:50:59.057Z,70.20
2017-09-20T06:53:26.709Z,54.20
2017-09-20T06:55:54.481Z,58.37
2017-09-20T06:58:22.207Z,49.37
2017-09-20T07:00:49.898Z,66.50
2017-09-20T07:03:17.672Z,51.77
2017-09-20T07:05:45.398Z,55.37
2017-09-20T07:08:13.185Z,53.07
2017-09-20T07:10:40.849Z,54.93
2017-09-20T07:13:08.972Z,60.20
2017-09-20T07:15:36.686Z,56.33
2017-09-20T07:18:04.386Z,47.90
2017-09-20T07:20:32.030Z,67.23
2017-09-20T07:22:59.739Z,62.87
2017-09-20T07:25:27.462Z,54.97
2017-09-20T07:27:55.242Z,56.83
2017-09-20T07:30:23.001Z,48.43
2017-09-20T07:32:50.787Z,57.70
2017-09-20T07:35:18.537Z,43.93
2017-09-20T07:37:46.353Z,56.13
2017-09-20T07:40:14.081Z,39.60
2017-09-20T07:42:41.845Z,36.43
2017-09-20T07:45:09.587Z,57.37
2017-09-20T07:47:37.283Z,53.00
2017-09-20T07:50:04.932Z,56.23
2017-09-20T07:52:32.611Z,46.60
2017-09-20T07:55:00.281Z,51.23
2017-09-20T07:57:27.982Z,89.20
2017-09-20T07:59:55.614Z,51.17
2017-09-20T08:02:23.397Z,60.83
2017-09-20T08:04:51.130Z,56.07
2017-09-20T08:07:18.924Z,55.13
2017-09-20T08:09:46.688Z,62.97
2017-09-20T08:12:14.462Z,63.47
2017-09-20T08:14:42.199Z,58.00
2017-09-20T08:17:09.933Z,50.70
2017-09-20T08:19:37.660Z,58.00
2017-09-20T08:22:05.464Z,43.83
2017-09-20T08:24:33.236Z,39.60
2017-09-20T08:27:01.006Z,36.27
2017-09-20T08:29:28.720Z,29.60
2017-09-20T08:31:56.495Z,34.57
2017-09-20T08:34:24.235Z,52.07
2017-09-20T08:48:08.580Z,38.07
2017-09-20T08:53:15.100Z,61.83
2017-09-20T09:24:45.340Z,37.30
2017-09-20T09:40:42.735Z,42.10
2017-09-20T09:43:10.870Z,31.83
2017-09-20T09:45:38.499Z,19.47
2017-09-20T09:48:06.171Z,39.10
2017-09-20T09:50:33.802Z,56.70
2017-09-20T09:53:01.482Z,39.00
2017-09-20T09:55:29.194Z,49.63
2017-09-20T09:57:56.945Z,39.47
2017-09-20T10:00:24.652Z,36.73
2017-09-20T10:02:52.422Z,36.17
2017-09-20T10:05:20.136Z,46.70
2017-09-20T10:07:47.909Z,35.23
2017-09-20T10:10:15.656Z,25.47
2017-09-20T10:12:43.357Z,37.13
2017-09-20T10:15:11.100Z,29.60
2017-09-20T10:17:38.806Z,29.20
2017-09-20T10:20:06.556Z,48.47
2017-09-20T10:22:34.198Z,34.10
2017-09-20T10:25:01.960Z,51.43
2017-09-20T10:27:29.692Z,43.03
2017-09-20T10:29:57.909Z,34.77
2017-09-20T10:32:25.622Z,36.70
2017-09-20T10:34:53.379Z,24.80
2017-09-20T10:37:21.081Z,8.00
2017-09-20T10:39:48.901Z,19.47
2017-09-20T10:42:16.607Z,33.53
2017-09-20T10:44:44.417Z,25.07
2017-09-20T10:47:12.164Z,44.10
2017-09-20T10:49:39.952Z,40.93
2017-09-20T10:52:07.660Z,24.87
2017-09-20T10:54:35.441Z,22.83
2017-09-20T10:57:03.154Z,39.07
2017-09-20T10:59:30.819Z,35.57
2017-09-20T11:01:58.561Z,45.00
2017-09-20T11:04:26.343Z,28.37
2017-09-20T11:06:54.029Z,34.53
2017-09-20T11:09:21.808Z,29.73
2017-09-20T11:11:49.573Z,56.57
2017-09-20T11:14:17.250Z,24.60
2017-09-20T11:16:44.976Z,23.80
2017-09-20T11:19:12.748Z,31.57
2017-09-20T11:21:40.461Z,31.10
2017-09-20T11:24:08.242Z,28.17
2017-09-20T11:26:35.981Z,26.90
2017-09-20T11:29:03.728Z,38.03
2017-09-20T11:31:31.443Z,27.70
2017-09-20T11:33:59.210Z,37.60
2017-09-20T11:36:26.835Z,30.70
2017-09-20T11:38:54.675Z,29.30
2017-09-20T11:41:22.379Z,32.40
2017-09-20T11:43:50.150Z,36.83
2017-09-20T11:46:17.867Z,24.00
2017-09-20T11:48:45.661Z,27.63
2017-09-20T11:51:13.461Z,19.67
2017-09-20T11:53:41.238Z,31.93
2017-09-20T11:56:08.964Z,39.60
2017-09-20T11:58:36.694Z,16.33
2017-09-20T12:01:04.474Z,36.00
2017-09-20T12:03:32.179Z,21.23
2017-09-20T12:05:59.978Z,14.83
2017-09-20T12:08:27.716Z,23.47
2017-09-20T12:10:55.474Z,25.27
2017-09-20T12:13:23.221Z,16.93
2017-09-20T12:15:51.015Z,47.27
2017-09-20T12:18:18.740Z,16.53
2017-09-20T12:20:46.502Z,26.10
2017-09-20T12:23:14.216Z,30.40
2017-09-20T12:25:41.995Z,17.73
2017-09-20T12:28:09.699Z,24.63
2017-09-20T12:30:37.491Z,14.70
2017-09-20T12:33:05.213Z,24.00
2017-09-20T12:35:32.970Z,28.63
2017-09-20T12:38:00.709Z,22.00
2017-09-20T12:40:28.417Z,38.07
2017-09-20T12:42:56.086Z,20.10
2017-09-20T12:45:23.798Z,31.90
2017-09-20T12:47:51.460Z,22.40
2017-09-20T12:50:19.180Z,31.00
2017-09-20T12:52:46.863Z,18.13
2017-09-20T12:55:14.595Z,18.33
2017-09-20T12:57:42.259Z,38.13
2017-09-20T13:00:09.952Z,31.53
2017-09-20T13:02:37.663Z,17.27
2017-09-20T13:05:05.412Z,20.40
2017-09-20T13:07:33.056Z,18.40
2017-09-20T13:10:00.792Z,27.20
2017-09-20T13:12:28.494Z,26.93
2017-09-20T13:14:56.221Z,32.20
2017-09-20T13:17:23.897Z,32.57
2017-09-20T13:19:51.637Z,20.73
2017-09-20T13:22:19.328Z,49.20
2017-09-20T13:24:47.067Z,30.43
2017-09-20T13:27:14.742Z,22.03
2017-09-20T13:29:42.470Z,23.57
2017-09-20T13:32:10.142Z,17.00
2017-09-20T13:34:37.861Z,27.77
2017-09-20T13:37:05.565Z,27.83
2017-09-20T13:39:33.289Z,28.87
2017-09-20T13:42:01.014Z,19.83
2017-09-20T13:44:28.685Z,20.57
2017-09-20T13:46:56.417Z,19.83
2017-09-20T13:49:24.087Z,16.00
2017-09-20T13:51:51.822Z,14.43
2017-09-20T13:54:19.504Z,13.37
2017-09-20T13:56:47.233Z,17.40
2017-09-20T13:59:15.803Z,18.33
2017-09-20T14:01:44.707Z,30.17
2017-09-20T14:04:13.521Z,13.50
2017-09-20T14:06:42.333Z,12.00
2017-09-20T14:09:10.325Z,11.93
2017-09-20T14:11:38.148Z,17.40
2017-09-20T14:14:10.375Z,15.03
2017-09-20T14:16:39.648Z,26.27
2017-09-20T14:19:08.158Z,16.97
2017-09-20T14:21:36.692Z,20.90
2017-09-20T14:24:05.285Z,15.83
2017-09-20T14:38:17.268Z,20.17
2017-09-20T14:40:45.808Z,16.10
2017-09-20T14:49:25.089Z,27.37
2017-09-20T14:54:46.914Z,19.87
2017-09-20T14:57:15.433Z,12.80
2017-09-20T14:59:43.585Z,29.83
2017-09-20T15:02:12.180Z,30.03
2017-09-20T15:04:40.856Z,22.90
2017-09-20T15:07:15.839Z,24.33
2017-09-20T15:09:44.213Z,18.73
2017-09-20T15:12:13.898Z,30.83
2017-09-20T15:14:42.804Z,17.60
2017-09-20T15:17:11.262Z,35.80
2017-09-20T15:19:39.346Z,21.10
2017-09-20T15:22:07.495Z,23.47
2017-09-20T15:24:37.722Z,24.53
2017-09-20T15:27:05.741Z,45.97
2017-09-20T15:29:34.737Z,21.00
2017-09-20T15:32:02.495Z,40.50
2017-09-20T15:34:31.552Z,26.53
2017-09-20T15:36:59.599Z,27.50
2017-09-20T15:39:27.918Z,19.40
2017-09-20T15:41:57.435Z,30.10
2017-09-20T15:44:25.123Z,21.20
2017-09-20T15:46:53.157Z,21.70
2017-09-20T15:49:20.750Z,25.67
2017-09-20T15:51:50.143Z,25.67
2017-09-20T15:54:17.801Z,22.93
2017-09-20T15:56:45.539Z,28.40
2017-09-20T15:59:15.064Z,15.50
2017-09-20T16:01:42.774Z,20.83
2017-09-20T16:04:10.873Z,22.20
2017-09-20T16:06:38.905Z,22.27
2017-09-20T16:09:12.298Z,21.40
2017-09-20T16:11:42.190Z,21.30
2017-09-20T16:14:10.332Z,24.23
2017-09-20T16:16:38.545Z,25.23
2017-09-20T16:19:06.240Z,23.03
2017-09-20T16:21:33.983Z,31.73
2017-09-20T16:24:04.637Z,29.63
2017-09-20T16:26:33.330Z,30.83
2017-09-20T16:29:02.010Z,26.73
2017-09-20T16:31:30.974Z,28.33
2017-09-20T16:33:58.785Z,28.43
2017-09-20T16:36:27.588Z,37.57
2017-09-20T16:39:02.178Z,31.17
2017-09-20T16:41:31.274Z,38.43
2017-09-20T16:43:59.966Z,37.67
2017-09-20T16:49:15.320Z,39.60
2017-09-20T16:51:44.551Z,39.20
2017-09-20T16:54:13.733Z,45.50
2017-09-20T16:56:41.836Z,50.90
2017-09-20T16:59:09.743Z,50.27
2017-09-20T17:01:40.702Z,43.73
2017-09-20T17:04:10.020Z,51.50
2017-09-20T17:06:37.905Z,58.37
2017-09-20T17:09:07.169Z,44.43
2017-09-20T17:11:36.663Z,48.03
2017-09-20T17:14:05.696Z,45.03
2017-09-20T17:16:35.683Z,40.83
2017-09-20T17:19:03.527Z,51.90
2017-09-20T17:21:31.151Z,56.40
2017-09-20T17:24:01.358Z,46.60
2017-09-20T17:26:29.365Z,50.50
2017-09-20T17:28:58.366Z,63.97
2017-09-20T17:31:28.317Z,58.13
2017-09-20T17:33:56.163Z,75.90
2017-09-20T17:36:24.441Z,70.67
2017-09-20T17:38:52.317Z,69.30
2017-09-20T17:41:20.520Z,68.70
2017-09-20T17:43:48.230Z,77.60
2017-09-20T17:46:15.811Z,78.57
2017-09-20T17:48:43.432Z,76.17
2017-09-20T17:51:11.012Z,91.53
2017-09-20T17:53:38.634Z,73.93
2017-09-20T17:56:06.220Z,75.30
2017-09-20T17:58:33.848Z,77.13
2017-09-20T18:01:01.529Z,81.13
2017-09-20T18:03:29.268Z,76.07
2017-09-20T18:05:56.936Z,73.83
2017-09-20T18:08:24.672Z,81.47
2017-09-20T18:10:52.369Z,73.63
2017-09-20T18:13:20.149Z,67.50
2017-09-20T18:15:47.833Z,72.20
2017-09-20T18:18:15.561Z,69.73
2017-09-20T18:20:43.285Z,79.93
2017-09-20T18:23:11.034Z,75.63
2017-09-20T18:25:38.710Z,65.70
2017-09-20T18:28:06.439Z,84.47
2017-09-20T18:30:34.052Z,88.50
2017-09-20T18:33:04.278Z,92.97
2017-09-20T18:35:31.911Z,80.80
2017-09-20T18:38:00.311Z,93.70
2017-09-20T18:40:28.055Z,81.47
2017-09-20T18:42:55.682Z,89.37
2017-09-20T18:45:23.269Z,93.27
2017-09-20T18:47:54.253Z,88.30
2017-09-20T18:50:21.839Z,85.93
2017-09-20T18:52:49.576Z,101.47
2017-09-20T18:55:17.191Z,88.17
2017-09-20T18:57:44.837Z,80.33
2017-09-20T19:00:12.464Z,98.17
2017-09-20T19:02:40.073Z,93.70
2017-09-20T19:05:07.798Z,101.37
2017-09-20T19:07:35.465Z,80.57
2017-09-20T19:10:03.261Z,106.40
2017-09-20T19:12:30.910Z,87.77
2017-09-20T19:14:58.617Z,99.60
2017-09-20T19:20:14.152Z,99.27
2017-09-20T19:22:45.211Z,94.77
2017-09-20T19:25:12.855Z,97.83
2017-09-20T19:27:40.448Z,104.37
2017-09-20T19:30:08.095Z,101.23
2017-09-20T19:32:35.785Z,113.13
2017-09-20T19:35:12.423Z,116.57
2017-09-20T19:37:40.011Z,133.17
2017-09-20T19:40:07.645Z,121.80
2017-09-20T19:42:35.232Z,133.53
2017-09-20T19:45:02.976Z,124.20
2017-09-20T19:47:30.567Z,118.57
2017-09-20T19:49:58.200Z,144.53
2017-09-20T19:52:25.945Z,132.00
2017-09-20T19:54:53.933Z,118.50
2017-09-20T19:57:21.535Z,129.27
2017-09-20T20:09:33.527Z,128.23
2017-09-20T20:12:01.285Z,124.00
2017-09-20T20:17:27.025Z,152.03
2017-09-20T20:25:59.446Z,107.90
2017-09-20T20:28:28.056Z,121.70
2017-09-20T20:30:55.741Z,126.20
2017-09-20T20:33:23.365Z,142.53
2017-09-20T20:35:51.047Z,148.27
2017-09-20T20:38:18.700Z,130.30
2017-09-20T20:40:46.527Z,134.63
2017-09-20T20:43:14.212Z,161.77
2017-09-20T20:45:42.006Z,158.73
2017-09-20T20:48:09.640Z,128.23
2017-09-20T20:50:37.488Z,125.97
2017-09-20T20:53:05.231Z,125.67
2017-09-20T20:55:33.029Z,136.17
2017-09-20T20:58:00.750Z,135.17
2017-09-20T21:00:28.554Z,123.97
2017-09-20T21:02:56.315Z,132.23
2017-09-20T21:05:24.099Z,129.03
2017-09-20T21:07:51.815Z,144.97
2017-09-20T21:10:19.571Z,125.67
2017-09-20T21:12:47.560Z,124.53
2017-09-20T21:15:15.342Z,112.97
2017-09-20T21:17:43.120Z,133.83
2017-09-20T21:20:11.094Z,132.60
2017-09-20T21:22:38.754Z,111.07
2017-09-20T21:25:06.546Z,127.87
2017-09-20T21:27:34.285Z,118.77
2017-09-20T21:30:02.056Z,121.70
2017-09-20T21:32:29.754Z,151.37
2017-09-20T21:34:57.518Z,93.47
2017-09-20T21:37:25.267Z,132.13
2017-09-20T21:39:53.097Z,100.27
2017-09-20T21:42:20.842Z,91.43
2017-09-20T21:44:48.597Z,95.20
2017-09-20T21:47:16.297Z,129.47
2017-09-20T21:49:44.042Z,113.07
2017-09-20T21:52:11.765Z,101.67
2017-09-20T21:54:39.573Z,54.40
2017-09-20T21:57:07.539Z,96.23
2017-09-20T21:59:35.295Z,110.53
2017-09-20T22:02:02.996Z,96.97
2017-09-20T22:04:30.767Z,84.63
2017-09-20T22:06:58.464Z,44.77
2017-09-20T22:09:26.181Z,85.83
2017-09-20T22:11:53.942Z,69.47
2017-09-20T22:14:21.661Z,69.00
2017-09-20T22:16:49.432Z,42.87
2017-09-20T22:19:17.154Z,37.53
2017-09-20T22:21:44.932Z,50.57
2017-09-20T22:24:12.646Z,36.20
2017-09-20T22:26:40.336Z,65.37
2017-09-20T22:29:07.965Z,51.50
2017-09-20T22:31:35.750Z,43.90
2017-09-20T22:34:03.468Z,79.00
2017-09-20T22:36:31.116Z,34.80
2017-09-20T22:38:58.885Z,70.13
2017-09-20T22:41:26.615Z,31.57
2017-09-20T22:43:54.301Z,31.83
2017-09-20T22:46:22.053Z,33.07
2017-09-20T22:48:49.745Z,24.60
2017-09-20T22:51:17.478Z,38.10
2017-09-20T22:53:45.189Z,39.10
2017-09-20T22:56:12.930Z,35.47
2017-09-20T22:58:40.637Z,28.13
2017-09-20T23:01:08.388Z,15.97
2017-09-20T23:03:36.082Z,23.57
2017-09-20T23:06:03.813Z,22.03
2017-09-20T23:08:31.522Z,10.87
2017-09-20T23:10:59.284Z,11.63
2017-09-20T23:13:26.964Z,18.17
2017-09-20T23:15:54.709Z,23.20
2017-09-20T23:18:22.403Z,34.30
2017-09-20T23:20:50.149Z,24.30
2017-09-20T23:23:17.840Z,11.13
2017-09-20T23:25:45.595Z,12.90
2017-09-20T23:28:13.339Z,10.43
2017-09-20T23:30:41.077Z,9.20
2017-09-20T23:33:08.765Z,8.40
2017-09-20T23:35:36.511Z,11.97
2017-09-20T23:38:04.206Z,12.07
2017-09-20T23:40:32.001Z,11.67
2017-09-20T23:42:59.689Z,9.50
2017-09-20T23:45:27.372Z,7.30
2017-09-20T23:47:55.127Z,11.20
2017-09-20T23:50:22.826Z,7.27
2017-09-20T23:52:50.571Z,6.90
2017-09-20T23:55:18.280Z,6.50
2017-09-20T23:57:46.034Z,11.73
